createdAt,value
2018-04-06T00:00:39.516Z,3.70
2018-04-06T00:03:06.916Z,3.76
2018-04-06T00:05:34.318Z,3.90
2018-04-06T00:08:01.702Z,4.03
2018-04-06T00:10:29.100Z,4.09
2018-04-06T00:12:56.488Z,4.15
2018-04-06T00:15:23.891Z,4.19
2018-04-06T00:17:51.272Z,4.18
2018-04-06T00:20:18.652Z,4.17
2018-04-06T00:22:46.056Z,4.17
2018-04-06T00:25:13.453Z,4.16
2018-04-06T00:27:40.855Z,4.20
2018-04-06T00:30:08.235Z,4.21
2018-04-06T00:32:35.637Z,4.25
2018-04-06T00:35:03.020Z,4.19
2018-04-06T00:37:30.409Z,4.26
2018-04-06T00:39:57.792Z,4.24
2018-04-06T00:42:25.764Z,4.19
2018-04-06T00:44:53.165Z,3.97
2018-04-06T00:47:20.553Z,3.87
2018-04-06T00:49:47.944Z,4.01
2018-04-06T00:52:15.336Z,4.08
2018-04-06T00:54:42.753Z,4.12
2018-04-06T00:57:10.145Z,4.17
2018-04-06T00:59:37.540Z,4.18
2018-04-06T01:02:04.950Z,4.24
2018-04-06T01:04:32.333Z,4.27
2018-04-06T01:06:59.772Z,4.28
2018-04-06T01:09:27.168Z,4.32
2018-04-06T01:11:54.557Z,4.31
2018-04-06T01:14:21.932Z,4.28
2018-04-06T01:16:49.755Z,4.37
2018-04-06T01:19:17.148Z,4.43
2018-04-06T01:21:44.543Z,4.26
2018-04-06T01:24:11.932Z,4.26
2018-04-06T01:26:39.327Z,4.18
2018-04-06T01:29:06.720Z,4.19
2018-04-06T01:31:34.113Z,4.28
2018-04-06T01:34:01.520Z,4.25
2018-04-06T01:36:28.912Z,4.29
2018-04-06T01:38:56.309Z,4.29
2018-04-06T01:41:23.694Z,4.29
2018-04-06T01:43:51.075Z,4.11
2018-04-06T01:46:18.477Z,4.06
2018-04-06T01:48:45.865Z,4.07
2018-04-06T01:51:13.256Z,4.04
2018-04-06T01:53:40.661Z,3.99
2018-04-06T01:56:08.045Z,3.97
2018-04-06T01:58:35.469Z,3.94
2018-04-06T02:01:02.880Z,3.90
2018-04-06T02:03:30.272Z,3.88
2018-04-06T02:05:57.652Z,3.86
2018-04-06T02:08:25.036Z,3.83
2018-04-06T02:10:52.428Z,3.80
2018-04-06T02:13:19.829Z,3.73
2018-04-06T02:15:47.204Z,3.74
2018-04-06T02:18:14.605Z,3.73
2018-04-06T02:20:42.000Z,3.69
2018-04-06T02:23:09.408Z,3.59
2018-04-06T02:25:36.801Z,3.60
2018-04-06T02:28:04.180Z,3.73
2018-04-06T02:30:31.573Z,3.83
2018-04-06T02:32:58.967Z,3.83
2018-04-06T02:35:26.352Z,3.93
2018-04-06T02:37:53.740Z,3.92
2018-04-06T02:40:21.144Z,3.86
2018-04-06T02:42:48.539Z,3.87
2018-04-06T02:45:15.929Z,3.85
2018-04-06T02:47:43.329Z,3.81
2018-04-06T02:50:10.730Z,3.77
2018-04-06T02:52:38.333Z,3.79
2018-04-06T02:55:05.728Z,3.78
2018-04-06T02:57:33.214Z,3.83
2018-04-06T03:00:00.638Z,3.90
2018-04-06T03:02:28.043Z,3.81
2018-04-06T03:04:55.436Z,3.81
2018-04-06T03:07:22.820Z,3.83
2018-04-06T03:09:50.220Z,3.79
2018-04-06T03:12:17.609Z,3.78
2018-04-06T03:14:45.004Z,3.74
2018-04-06T03:17:12.400Z,3.70
2018-04-06T03:19:39.796Z,3.70
2018-04-06T03:22:07.188Z,3.71
2018-04-06T03:24:34.584Z,3.69
2018-04-06T03:27:01.977Z,3.69
2018-04-06T03:29:29.404Z,3.70
2018-04-06T03:31:56.788Z,3.67
2018-04-06T03:34:24.181Z,3.67
2018-04-06T03:36:51.580Z,3.67
2018-04-06T03:39:18.972Z,3.61
2018-04-06T03:41:46.369Z,3.56
2018-04-06T03:44:13.760Z,3.57
2018-04-06T03:46:41.177Z,3.61
2018-04-06T03:49:08.573Z,3.62
2018-04-06T03:51:36.008Z,3.61
2018-04-06T03:54:03.403Z,3.62
2018-04-06T03:56:30.789Z,3.61
2018-04-06T03:58:58.188Z,3.60
2018-04-06T04:01:25.629Z,3.55
2018-04-06T04:03:53.028Z,3.52
2018-04-06T04:06:20.425Z,3.45
2018-04-06T04:08:48.129Z,3.46
2018-04-06T04:11:15.521Z,3.42
2018-04-06T04:13:42.904Z,3.38
2018-04-06T04:16:10.300Z,3.34
2018-04-06T04:18:37.692Z,3.33
2018-04-06T04:21:05.147Z,3.31
2018-04-06T04:23:32.489Z,3.31
2018-04-06T04:25:59.888Z,3.26
2018-04-06T04:28:27.276Z,3.27
2018-04-06T04:30:54.668Z,3.27
2018-04-06T04:33:22.066Z,3.24
2018-04-06T04:35:49.452Z,3.20
2018-04-06T04:38:16.848Z,3.12
2018-04-06T04:40:44.244Z,3.10
2018-04-06T04:43:11.646Z,3.17
2018-04-06T04:45:39.036Z,3.15
2018-04-06T04:48:06.432Z,3.16
2018-04-06T04:50:33.824Z,3.10
2018-04-06T04:53:01.223Z,3.12
2018-04-06T04:55:28.618Z,3.23
2018-04-06T04:57:56.008Z,3.23
2018-04-06T05:00:23.408Z,3.28
2018-04-06T05:02:50.800Z,3.31
2018-04-06T05:05:18.221Z,3.29
2018-04-06T05:07:45.604Z,3.33
2018-04-06T05:10:12.997Z,3.33
2018-04-06T05:12:40.528Z,3.34
2018-04-06T05:15:07.921Z,3.37
2018-04-06T05:17:35.364Z,3.42
2018-04-06T05:20:02.713Z,3.49
2018-04-06T05:22:30.133Z,3.50
2018-04-06T05:24:57.535Z,3.48
2018-04-06T05:27:24.924Z,3.54
2018-04-06T05:29:52.320Z,3.62
2018-04-06T05:32:19.804Z,3.61
2018-04-06T05:34:47.161Z,3.63
2018-04-06T05:37:14.548Z,3.63
2018-04-06T05:39:41.948Z,3.72
2018-04-06T05:42:09.350Z,3.75
2018-04-06T05:44:36.732Z,3.86
2018-04-06T05:47:04.132Z,3.92
2018-04-06T05:49:31.528Z,3.99
2018-04-06T05:51:58.932Z,4.02
2018-04-06T05:54:26.410Z,4.08
2018-04-06T05:56:53.808Z,4.16
2018-04-06T05:59:21.221Z,4.19
2018-04-06T06:01:49.682Z,4.25
2018-04-06T06:04:17.067Z,4.28
2018-04-06T06:06:44.475Z,4.47
2018-04-06T06:09:11.917Z,4.51
2018-04-06T06:11:39.308Z,4.57
2018-04-06T06:14:06.720Z,4.61
2018-04-06T06:16:34.113Z,4.64
2018-04-06T06:19:01.536Z,4.69
2018-04-06T06:21:28.920Z,4.75
2018-04-06T06:23:56.327Z,4.83
2018-04-06T06:26:23.720Z,4.91
2018-04-06T06:28:51.120Z,5.02
2018-04-06T06:31:18.512Z,5.07
2018-04-06T06:33:45.912Z,5.16
2018-04-06T06:36:13.301Z,5.24
2018-04-06T06:38:40.684Z,5.33
2018-04-06T06:41:08.104Z,5.45
2018-04-06T06:43:35.503Z,5.51
2018-04-06T06:46:02.902Z,5.63
2018-04-06T06:48:30.276Z,5.71
2018-04-06T06:50:57.665Z,5.79
2018-04-06T06:53:25.062Z,5.88
2018-04-06T06:55:52.440Z,5.97
2018-04-06T06:58:19.832Z,6.02
2018-04-06T07:00:47.212Z,6.15
2018-04-06T07:03:14.598Z,6.22
2018-04-06T07:05:41.984Z,6.32
2018-04-06T07:08:09.363Z,6.40
2018-04-06T07:10:36.766Z,6.45
2018-04-06T07:13:04.148Z,6.49
2018-04-06T07:15:31.536Z,6.56
2018-04-06T07:17:58.925Z,6.62
2018-04-06T07:20:26.303Z,6.74
2018-04-06T07:22:53.692Z,6.78
2018-04-06T07:25:21.084Z,6.93
2018-04-06T07:27:48.468Z,7.05
2018-04-06T07:30:15.853Z,7.14
2018-04-06T07:32:43.244Z,7.20
2018-04-06T07:35:10.628Z,7.27
2018-04-06T07:37:38.064Z,7.33
2018-04-06T07:40:05.447Z,7.39
2018-04-06T07:42:32.842Z,7.41
2018-04-06T07:45:00.220Z,7.53
2018-04-06T07:47:27.613Z,7.64
2018-04-06T07:49:54.997Z,7.72
2018-04-06T07:52:22.791Z,7.80
2018-04-06T07:54:50.178Z,7.93
2018-04-06T07:57:17.560Z,8.00
2018-04-06T07:59:44.948Z,8.07
2018-04-06T08:02:12.332Z,8.16
2018-04-06T08:04:39.732Z,8.28
2018-04-06T08:07:07.104Z,8.25
2018-04-06T08:09:34.505Z,8.40
2018-04-06T08:12:01.887Z,8.52
2018-04-06T08:14:29.272Z,8.59
2018-04-06T08:16:56.651Z,8.64
2018-04-06T08:19:24.040Z,8.72
2018-04-06T08:21:51.424Z,8.81
2018-04-06T08:24:18.813Z,8.91
2018-04-06T08:26:46.196Z,9.02
2018-04-06T08:29:13.584Z,9.08
2018-04-06T08:31:40.980Z,9.19
2018-04-06T08:34:08.749Z,9.12
2018-04-06T08:36:36.139Z,9.28
2018-04-06T08:39:03.521Z,9.43
2018-04-06T08:41:30.913Z,9.60
2018-04-06T08:43:58.372Z,9.59
2018-04-06T08:46:25.760Z,9.66
2018-04-06T08:48:53.137Z,9.88
2018-04-06T08:51:20.520Z,10.03
2018-04-06T08:53:47.904Z,10.20
2018-04-06T08:56:15.292Z,10.42
2018-04-06T08:58:42.673Z,10.61
2018-04-06T09:01:10.061Z,10.70
2018-04-06T09:03:37.449Z,10.84
2018-04-06T09:06:04.845Z,10.96
2018-04-06T09:08:32.281Z,11.10
2018-04-06T09:10:59.628Z,11.13
2018-04-06T09:13:27.004Z,11.36
2018-04-06T09:15:54.420Z,11.45
2018-04-06T09:18:21.796Z,11.65
2018-04-06T09:20:49.177Z,11.80
2018-04-06T09:23:16.560Z,11.87
2018-04-06T09:25:43.945Z,12.10
2018-04-06T09:28:11.347Z,12.22
2018-04-06T09:30:38.732Z,12.43
2018-04-06T09:33:06.123Z,12.69
2018-04-06T09:35:33.516Z,12.94
2018-04-06T09:38:00.922Z,13.13
2018-04-06T09:40:28.291Z,13.55
2018-04-06T09:42:55.683Z,13.80
2018-04-06T09:45:23.077Z,14.19
2018-04-06T09:47:50.456Z,14.36
2018-04-06T09:50:17.833Z,14.49
2018-04-06T09:52:45.220Z,14.58
2018-04-06T09:55:12.601Z,14.50
2018-04-06T09:57:39.985Z,14.94
2018-04-06T10:00:07.363Z,15.02
2018-04-06T10:02:41.196Z,15.10
2018-04-06T10:05:08.572Z,15.42
2018-04-06T10:07:35.953Z,15.14
2018-04-06T10:10:03.337Z,15.89
2018-04-06T10:12:30.772Z,16.22
2018-04-06T10:14:58.153Z,16.18
2018-04-06T10:17:25.580Z,16.66
2018-04-06T10:19:52.965Z,16.85
2018-04-06T10:22:20.341Z,16.74
2018-04-06T10:24:47.724Z,17.01
2018-04-06T10:27:15.111Z,17.19
2018-04-06T10:29:42.495Z,17.15
2018-04-06T10:32:09.881Z,17.59
2018-04-06T10:34:37.340Z,17.79
2018-04-06T10:37:04.716Z,17.64
2018-04-06T10:39:32.104Z,17.70
2018-04-06T10:41:59.480Z,17.65
2018-04-06T10:44:26.868Z,17.94
2018-04-06T10:46:54.249Z,17.95
2018-04-06T10:49:21.660Z,17.93
2018-04-06T10:51:49.041Z,18.26
2018-04-06T10:54:16.428Z,18.81
2018-04-06T10:56:43.812Z,19.51
2018-04-06T10:59:11.202Z,19.69
2018-04-06T11:01:38.581Z,20.09
2018-04-06T11:04:05.960Z,19.92
2018-04-06T11:06:33.349Z,19.80
2018-04-06T11:09:00.725Z,19.15
2018-04-06T11:11:28.112Z,19.01
2018-04-06T11:13:55.485Z,19.14
2018-04-06T11:16:22.880Z,19.09
2018-04-06T11:18:50.258Z,19.07
2018-04-06T11:21:17.664Z,19.55
2018-04-06T11:23:45.033Z,19.65
2018-04-06T11:26:12.601Z,19.57
2018-04-06T11:28:39.984Z,19.17
2018-04-06T11:31:07.376Z,19.25
2018-04-06T11:33:34.767Z,19.45
2018-04-06T11:36:02.149Z,19.60
2018-04-06T11:38:29.533Z,19.74
2018-04-06T11:40:56.912Z,19.84
2018-04-06T11:43:24.302Z,19.55
2018-04-06T11:45:51.722Z,19.47
2018-04-06T11:48:19.104Z,19.16
2018-04-06T11:50:46.487Z,18.96
2018-04-06T11:53:13.872Z,19.52
2018-04-06T11:55:41.252Z,19.45
2018-04-06T11:58:08.638Z,19.43
2018-04-06T12:00:36.016Z,18.89
2018-04-06T12:03:03.407Z,19.00
2018-04-06T12:05:30.845Z,18.75
2018-04-06T12:07:58.232Z,18.90
2018-04-06T12:10:25.612Z,19.02
2018-04-06T12:12:53.001Z,18.87
2018-04-06T12:15:20.388Z,18.91
2018-04-06T12:17:47.789Z,18.74
2018-04-06T12:20:15.172Z,18.88
2018-04-06T12:22:42.548Z,18.83
2018-04-06T12:25:09.944Z,18.88
2018-04-06T12:27:37.328Z,18.89
2018-04-06T12:30:04.711Z,18.89
2018-04-06T12:32:32.112Z,18.77
2018-04-06T12:34:59.500Z,18.73
2018-04-06T12:37:27.057Z,19.08
2018-04-06T12:39:54.424Z,18.99
2018-04-06T12:42:21.804Z,18.97
2018-04-06T12:44:49.217Z,19.13
2018-04-06T12:47:16.597Z,19.15
2018-04-06T12:49:43.985Z,19.07
2018-04-06T12:52:11.364Z,18.92
2018-04-06T12:54:38.816Z,18.98
2018-04-06T12:57:06.197Z,18.80
2018-04-06T12:59:33.576Z,18.82
2018-04-06T13:02:00.961Z,18.79
2018-04-06T13:04:28.340Z,19.01
2018-04-06T13:06:55.721Z,18.65
2018-04-06T13:09:23.100Z,18.29
2018-04-06T13:11:50.486Z,18.47
2018-04-06T13:14:17.861Z,18.41
2018-04-06T13:16:45.253Z,18.52
2018-04-06T13:19:12.627Z,18.41
2018-04-06T13:21:41.675Z,18.55
2018-04-06T13:24:09.049Z,18.66
2018-04-06T13:26:36.432Z,18.53
2018-04-06T13:29:03.813Z,18.47
2018-04-06T13:31:31.200Z,18.40
2018-04-06T13:33:58.584Z,18.21
2018-04-06T13:36:25.958Z,18.63
2018-04-06T13:38:53.340Z,18.49
2018-04-06T13:41:20.721Z,18.68
2018-04-06T13:43:48.105Z,18.68
2018-04-06T13:46:15.494Z,18.48
2018-04-06T13:48:42.868Z,18.33
2018-04-06T13:51:10.249Z,18.24
2018-04-06T13:53:37.628Z,18.02
2018-04-06T13:56:05.016Z,17.88
2018-04-06T13:58:32.416Z,17.84
2018-04-06T14:00:59.865Z,17.75
2018-04-06T14:03:27.173Z,17.59
2018-04-06T14:05:54.547Z,17.59
2018-04-06T14:08:21.936Z,17.72
2018-04-06T14:10:49.313Z,17.66
2018-04-06T14:13:16.704Z,17.70
2018-04-06T14:15:44.099Z,17.50
2018-04-06T14:18:11.474Z,17.55
2018-04-06T14:20:39.003Z,17.49
2018-04-06T14:23:06.390Z,17.35
2018-04-06T14:25:33.777Z,17.45
2018-04-06T14:28:01.157Z,17.47
2018-04-06T14:30:28.540Z,17.37
2018-04-06T14:32:55.920Z,17.45
2018-04-06T14:35:23.300Z,17.35
2018-04-06T14:37:50.676Z,17.28
2018-04-06T14:40:18.065Z,17.30
2018-04-06T14:42:45.440Z,17.23
2018-04-06T14:45:12.896Z,17.34
2018-04-06T14:47:40.280Z,17.39
2018-04-06T14:50:07.664Z,17.46
2018-04-06T14:52:35.040Z,17.55
2018-04-06T14:55:02.426Z,17.71
2018-04-06T14:57:29.805Z,17.64
2018-04-06T14:59:57.500Z,17.54
2018-04-06T15:02:24.884Z,17.58
2018-04-06T15:04:52.252Z,17.53
2018-04-06T15:07:19.637Z,17.56
2018-04-06T15:09:47.013Z,17.59
2018-04-06T15:12:14.392Z,17.58
2018-04-06T15:14:41.773Z,17.51
2018-04-06T15:17:09.225Z,17.46
2018-04-06T15:19:36.601Z,17.17
2018-04-06T15:22:03.983Z,17.09
2018-04-06T15:24:31.360Z,16.99
2018-04-06T15:26:58.741Z,17.00
2018-04-06T15:29:26.115Z,16.99
2018-04-06T15:31:53.500Z,16.91
2018-04-06T15:34:20.878Z,16.76
2018-04-06T15:36:48.304Z,16.71
2018-04-06T15:39:15.694Z,16.73
2018-04-06T15:41:43.073Z,16.82
2018-04-06T15:44:10.464Z,16.81
2018-04-06T15:46:37.839Z,16.75
2018-04-06T15:49:05.227Z,16.61
2018-04-06T15:51:32.619Z,16.62
2018-04-06T15:53:59.992Z,16.65
2018-04-06T15:56:27.381Z,16.57
2018-04-06T15:58:54.756Z,16.58
2018-04-06T16:01:22.138Z,16.59
2018-04-06T16:03:49.520Z,16.66
2018-04-06T16:06:16.900Z,16.59
2018-04-06T16:08:44.280Z,16.57
2018-04-06T16:11:11.660Z,16.57
2018-04-06T16:13:39.056Z,16.48
2018-04-06T16:16:06.435Z,16.36
2018-04-06T16:18:33.816Z,16.34
2018-04-06T16:21:01.196Z,16.26
2018-04-06T16:23:28.582Z,16.26
2018-04-06T16:25:55.995Z,16.22
2018-04-06T16:28:23.508Z,16.14
2018-04-06T16:30:50.888Z,16.16
2018-04-06T16:33:18.285Z,16.09
2018-04-06T16:35:45.660Z,16.06
2018-04-06T16:38:13.036Z,16.03
2018-04-06T16:40:40.434Z,16.00
2018-04-06T16:43:07.810Z,15.96
2018-04-06T16:45:35.184Z,15.89
2018-04-06T16:48:02.832Z,15.92
2018-04-06T16:50:30.208Z,15.91
2018-04-06T16:52:57.592Z,15.92
2018-04-06T16:55:25.009Z,15.87
2018-04-06T16:57:52.387Z,15.86
2018-04-06T17:00:19.765Z,15.82
2018-04-06T17:02:47.184Z,15.80
2018-04-06T17:05:14.557Z,15.73
2018-04-06T17:07:41.935Z,15.72
2018-04-06T17:10:09.358Z,15.60
2018-04-06T17:12:36.736Z,15.47
2018-04-06T17:15:04.203Z,15.33
2018-04-06T17:17:31.598Z,15.26
2018-04-06T17:19:58.976Z,15.16
2018-04-06T17:22:26.352Z,15.06
2018-04-06T17:24:53.746Z,15.01
2018-04-06T17:27:21.120Z,14.93
2018-04-06T17:29:48.510Z,14.83
2018-04-06T17:32:15.912Z,14.77
2018-04-06T17:34:43.467Z,14.70
2018-04-06T17:37:10.860Z,14.65
2018-04-06T17:39:38.240Z,14.56
2018-04-06T17:42:05.612Z,14.53
2018-04-06T17:44:33.000Z,14.48
2018-04-06T17:47:00.386Z,14.45
2018-04-06T17:49:27.760Z,14.36
2018-04-06T17:51:55.152Z,14.31
2018-04-06T17:54:22.545Z,14.26
2018-04-06T17:56:49.933Z,14.25
2018-04-06T17:59:17.323Z,14.19
2018-04-06T18:01:44.705Z,14.08
2018-04-06T18:04:12.093Z,14.04
2018-04-06T18:06:39.484Z,14.05
2018-04-06T18:09:06.864Z,13.92
2018-04-06T18:11:34.245Z,13.86
2018-04-06T18:14:01.636Z,13.86
2018-04-06T18:16:29.012Z,13.83
2018-04-06T18:18:56.400Z,13.81
2018-04-06T18:21:23.788Z,13.80
2018-04-06T18:23:51.168Z,13.74
2018-04-06T18:26:18.545Z,13.71
2018-04-06T18:28:45.928Z,13.55
2018-04-06T18:31:13.309Z,13.56
2018-04-06T18:33:40.702Z,13.55
2018-04-06T18:36:08.133Z,13.51
2018-04-06T18:38:35.460Z,13.51
2018-04-06T18:41:02.854Z,13.42
2018-04-06T18:43:30.237Z,13.37
2018-04-06T18:45:57.611Z,13.35
2018-04-06T18:48:25.008Z,13.32
2018-04-06T18:50:52.389Z,13.28
2018-04-06T18:53:19.767Z,13.27
2018-04-06T18:55:47.180Z,13.23
2018-04-06T18:58:14.561Z,13.19
2018-04-06T19:00:41.941Z,13.13
2018-04-06T19:03:09.348Z,13.02
2018-04-06T19:05:36.728Z,13.01
2018-04-06T19:08:04.108Z,12.89
2018-04-06T19:10:31.512Z,12.91
2018-04-06T19:12:58.892Z,12.90
2018-04-06T19:15:26.264Z,12.90
2018-04-06T19:17:53.660Z,12.80
2018-04-06T19:20:21.032Z,12.82
2018-04-06T19:22:48.414Z,12.77
2018-04-06T19:25:15.796Z,12.70
2018-04-06T19:27:43.173Z,12.68
2018-04-06T19:30:10.600Z,12.61
2018-04-06T19:32:37.997Z,12.57
2018-04-06T19:35:05.381Z,12.58
2018-04-06T19:37:32.761Z,12.56
2018-04-06T19:40:00.156Z,12.53
2018-04-06T19:42:27.604Z,12.53
2018-04-06T19:44:54.929Z,12.49
2018-04-06T19:47:22.324Z,12.52
2018-04-06T19:49:49.705Z,12.54
2018-04-06T19:52:17.089Z,12.49
2018-04-06T19:54:44.481Z,12.41
2018-04-06T19:57:11.864Z,12.37
2018-04-06T19:59:39.252Z,12.34
2018-04-06T20:02:06.645Z,12.35
2018-04-06T20:04:34.028Z,12.34
2018-04-06T20:07:01.460Z,12.40
2018-04-06T20:09:28.858Z,12.45
2018-04-06T20:11:56.248Z,12.43
2018-04-06T20:14:23.630Z,12.43
2018-04-06T20:16:51.085Z,12.37
2018-04-06T20:19:18.466Z,12.36
2018-04-06T20:21:45.852Z,12.40
2018-04-06T20:24:13.245Z,12.40
2018-04-06T20:26:40.620Z,12.38
2018-04-06T20:29:08.012Z,12.38
2018-04-06T20:31:35.416Z,12.42
2018-04-06T20:34:02.801Z,12.44
2018-04-06T20:36:30.188Z,12.45
2018-04-06T20:38:57.604Z,12.49
2018-04-06T20:41:24.989Z,12.46
2018-04-06T20:43:52.371Z,12.40
2018-04-06T20:46:19.772Z,12.39
2018-04-06T20:48:47.165Z,12.34
2018-04-06T20:51:14.556Z,12.39
2018-04-06T20:53:41.968Z,12.34
2018-04-06T20:56:09.353Z,12.35
2018-04-06T20:58:36.741Z,12.31
2018-04-06T21:01:04.148Z,12.30
2018-04-06T21:03:31.550Z,12.36
2018-04-06T21:05:58.930Z,12.35
2018-04-06T21:08:26.336Z,12.40
2018-04-06T21:10:53.720Z,12.41
2018-04-06T21:13:21.104Z,12.37
2018-04-06T21:15:48.501Z,12.41
2018-04-06T21:18:15.892Z,12.38
2018-04-06T21:20:43.281Z,12.36
2018-04-06T21:23:10.692Z,12.31
2018-04-06T21:25:38.075Z,12.29
2018-04-06T21:28:05.467Z,12.27
2018-04-06T21:30:32.860Z,12.26
2018-04-06T21:33:00.244Z,12.33
2018-04-06T21:35:27.628Z,12.25
2018-04-06T21:37:55.037Z,12.27
2018-04-06T21:40:22.425Z,12.28
2018-04-06T21:42:49.808Z,12.28
2018-04-06T21:45:17.239Z,12.35
2018-04-06T21:47:44.608Z,12.34
2018-04-06T21:50:12.001Z,12.36
2018-04-06T21:52:39.396Z,12.31
2018-04-06T21:55:06.788Z,12.30
2018-04-06T21:57:34.168Z,12.31
2018-04-06T22:00:01.569Z,12.28
2018-04-06T22:02:28.948Z,12.27
2018-04-06T22:04:56.336Z,12.30
2018-04-06T22:07:23.733Z,12.28
2018-04-06T22:09:51.119Z,12.26
2018-04-06T22:12:18.540Z,12.25
2018-04-06T22:14:45.929Z,12.27
2018-04-06T22:17:13.308Z,12.26
2018-04-06T22:19:40.689Z,12.31
2018-04-06T22:22:08.088Z,12.29
2018-04-06T22:24:35.524Z,12.27
2018-04-06T22:27:02.904Z,12.25
2018-04-06T22:29:30.416Z,12.24
2018-04-06T22:31:57.796Z,12.24
2018-04-06T22:34:25.192Z,12.28
2018-04-06T22:36:52.599Z,12.26
2018-04-06T22:39:20.013Z,12.21
2018-04-06T22:41:47.403Z,12.16
2018-04-06T22:44:14.805Z,12.13
2018-04-06T22:46:42.239Z,12.15
2018-04-06T22:49:09.608Z,12.12
2018-04-06T22:51:37.032Z,12.08
2018-04-06T22:54:04.426Z,12.13
2018-04-06T22:56:31.801Z,12.09
2018-04-06T22:58:59.204Z,12.02
2018-04-06T23:01:26.588Z,12.07
2018-04-06T23:03:53.972Z,12.06
2018-04-06T23:06:21.397Z,12.03
2018-04-06T23:08:48.773Z,12.09
2018-04-06T23:11:16.157Z,12.09
2018-04-06T23:13:43.572Z,12.17
2018-04-06T23:16:10.956Z,12.12
2018-04-06T23:18:38.349Z,12.07
2018-04-06T23:21:05.772Z,12.03
2018-04-06T23:23:33.160Z,12.03
2018-04-06T23:26:00.540Z,12.00
2018-04-06T23:28:27.948Z,12.04
2018-04-06T23:30:55.325Z,12.04
2018-04-06T23:33:22.712Z,11.99
2018-04-06T23:35:50.108Z,11.98
2018-04-06T23:38:17.493Z,11.93
2018-04-06T23:40:44.873Z,11.91
2018-04-06T23:43:12.276Z,11.79
2018-04-06T23:45:39.656Z,11.76
2018-04-06T23:48:07.041Z,11.82
2018-04-06T23:50:34.433Z,11.80
2018-04-06T23:53:01.820Z,11.77
2018-04-06T23:55:29.221Z,11.76
2018-04-06T23:57:56.612Z,11.73
